createdAt,value
2019-05-21T00:00:55.618Z,99268.70
2019-05-21T00:03:26.013Z,99257.69
2019-05-21T00:05:56.336Z,99224.30
2019-05-21T00:08:26.759Z,99191.07
2019-05-21T00:10:57.084Z,99192.41
2019-05-21T00:13:27.372Z,99201.08
2019-05-21T00:15:57.649Z,99237.32
2019-05-21T00:18:27.938Z,99287.92
2019-05-21T00:21:00.552Z,99318.31
2019-05-21T00:23:31.103Z,99322.66
2019-05-21T00:26:01.462Z,99344.72
2019-05-21T00:28:39.683Z,99342.05
2019-05-21T00:31:45.954Z,99381.14
2019-05-21T00:34:52.633Z,99393.83
2019-05-21T00:37:59.492Z,99374.63
2019-05-21T00:41:05.505Z,99402.17
2019-05-21T00:43:46.384Z,99411.58
2019-05-21T00:46:16.997Z,99406.89
2019-05-21T00:48:47.872Z,99435.63
2019-05-21T00:51:19.634Z,99533.98
2019-05-21T00:53:49.905Z,99499.14
2019-05-21T00:56:20.222Z,99477.75
2019-05-21T00:58:51.270Z,99441.46
2019-05-21T01:01:21.915Z,99425.76
2019-05-21T01:03:52.253Z,99408.50
2019-05-21T01:06:22.593Z,99404.16
2019-05-21T01:08:56.156Z,99386.44
2019-05-21T01:11:26.488Z,99339.66
2019-05-21T01:13:58.388Z,99305.59
2019-05-21T01:16:28.739Z,99281.50
2019-05-21T01:18:59.993Z,99268.48
2019-05-21T01:21:30.319Z,99168.63
2019-05-21T01:24:02.095Z,99102.39
2019-05-21T01:26:32.476Z,99064.81
2019-05-21T01:29:05.586Z,99034.93
2019-05-21T01:31:37.722Z,99019.41
2019-05-21T01:34:11.311Z,98983.56
2019-05-21T01:36:42.487Z,98952.02
2019-05-21T01:39:13.019Z,98927.51
2019-05-21T01:41:43.324Z,98889.70
2019-05-21T01:44:13.648Z,98860.55
2019-05-21T01:46:44.416Z,98848.67
2019-05-21T01:49:14.783Z,98809.36
2019-05-21T01:51:45.102Z,98792.55
2019-05-21T01:54:15.401Z,98772.39
2019-05-21T01:56:45.713Z,98755.07
2019-05-21T01:59:16.087Z,98739.55
2019-05-21T02:01:47.613Z,98739.05
2019-05-21T02:04:19.672Z,98760.23
2019-05-21T02:06:50.225Z,98812.86
2019-05-21T02:09:20.569Z,98804.36
2019-05-21T02:11:51.227Z,98785.03
2019-05-21T02:14:21.965Z,98779.87
2019-05-21T02:16:52.252Z,98843.66
2019-05-21T02:19:23.137Z,98803.03
2019-05-21T02:21:53.456Z,98788.87
2019-05-21T02:24:24.239Z,98783.70
2019-05-21T02:26:54.604Z,98805.84
2019-05-21T02:29:27.220Z,98835.66
2019-05-21T02:31:57.495Z,98817.84
2019-05-21T02:34:28.276Z,98840.48
2019-05-21T02:36:58.593Z,98835.31
2019-05-21T02:39:29.273Z,98822.33
2019-05-21T02:41:59.616Z,98832.31
2019-05-21T02:44:29.888Z,98840.64
2019-05-21T02:47:00.169Z,98840.64
2019-05-21T02:49:31.468Z,98867.64
2019-05-21T02:52:01.813Z,98876.12
2019-05-21T02:54:40.720Z,98889.14
2019-05-21T02:57:04.741Z,98885.65
2019-05-21T02:59:36.349Z,98962.33
2019-05-21T03:02:14.760Z,98968.98
2019-05-21T03:04:46.660Z,98952.30
2019-05-21T03:07:19.803Z,98948.31
2019-05-21T03:09:50.454Z,98969.14
2019-05-21T03:12:20.802Z,98971.65
2019-05-21T03:14:52.008Z,99068.38
2019-05-21T03:17:22.868Z,99079.22
2019-05-21T03:19:53.220Z,99083.77
2019-05-21T03:22:23.545Z,99106.10
2019-05-21T03:24:54.164Z,99125.80
2019-05-21T03:27:24.918Z,99118.65
2019-05-21T03:29:55.215Z,99191.06
2019-05-21T03:32:25.579Z,99185.39
2019-05-21T03:34:56.238Z,99219.27
2019-05-21T03:37:26.945Z,99277.89
2019-05-21T03:39:58.963Z,99320.81
2019-05-21T03:42:31.765Z,99356.04
2019-05-21T03:45:02.094Z,99323.13
2019-05-21T03:47:35.126Z,99381.64
2019-05-21T03:50:05.964Z,99400.84
2019-05-21T03:52:36.251Z,99442.80
2019-05-21T03:55:06.835Z,99482.78
2019-05-21T03:57:37.564Z,99509.69
2019-05-21T04:00:09.486Z,99557.51
2019-05-21T04:02:42.939Z,99614.06
2019-05-21T04:05:20.085Z,99694.42
2019-05-21T04:07:50.380Z,99722.24
2019-05-21T04:10:21.165Z,99775.45
2019-05-21T04:13:08.897Z,99798.06
2019-05-21T04:16:04.677Z,99844.16
2019-05-21T04:18:46.103Z,99931.62
2019-05-21T04:21:16.406Z,99931.77
2019-05-21T04:23:47.117Z,99956.71
2019-05-21T04:26:17.425Z,99962.30
2019-05-21T04:28:48.349Z,100032.86
2019-05-21T04:31:18.655Z,100084.72
2019-05-21T04:33:48.953Z,100220.20
2019-05-21T04:36:19.260Z,100332.03
2019-05-21T04:38:49.626Z,100472.17
2019-05-21T04:41:21.557Z,100550.00
2019-05-21T04:44:01.257Z,100644.39
2019-05-21T04:46:31.581Z,100661.88
2019-05-21T04:49:01.985Z,100570.73
2019-05-21T04:51:32.300Z,100557.55
2019-05-21T04:54:03.294Z,100575.41
2019-05-21T04:56:34.565Z,100488.95
2019-05-21T04:59:04.889Z,100465.55
2019-05-21T05:01:38.000Z,100363.38
2019-05-21T05:04:09.840Z,100368.59
2019-05-21T05:06:40.170Z,100399.65
2019-05-21T05:09:11.368Z,100423.67
2019-05-21T05:11:42.488Z,100380.00
2019-05-21T05:14:12.816Z,100414.94
2019-05-21T05:16:44.753Z,100360.84
2019-05-21T05:19:15.261Z,100426.00
2019-05-21T05:21:52.523Z,100466.55
2019-05-21T05:24:22.895Z,100554.09
2019-05-21T05:26:53.175Z,100511.94
2019-05-21T05:29:24.602Z,100553.45
2019-05-21T05:31:56.304Z,100653.70
2019-05-21T05:34:26.992Z,100683.68
2019-05-21T05:36:57.306Z,100712.67
2019-05-21T05:39:29.684Z,100741.61
2019-05-21T05:42:01.436Z,100688.69
2019-05-21T05:44:33.809Z,100703.54
2019-05-21T05:47:04.140Z,100753.05
2019-05-21T05:49:40.537Z,100730.45
2019-05-21T05:52:10.871Z,100767.52
2019-05-21T05:54:42.946Z,100912.02
2019-05-21T05:57:19.211Z,101076.22
2019-05-21T05:59:49.535Z,101329.29
2019-05-21T06:02:19.844Z,101348.69
2019-05-21T06:04:50.169Z,101422.97
2019-05-21T06:07:21.438Z,101758.38
2019-05-21T06:09:52.635Z,101987.00
2019-05-21T06:12:25.147Z,101818.41
2019-05-21T06:14:55.428Z,101748.00
2019-05-21T06:17:26.066Z,101730.53
2019-05-21T06:19:56.657Z,102150.11
2019-05-21T06:22:27.676Z,102900.48
2019-05-21T06:24:58.039Z,103378.76
2019-05-21T06:27:29.965Z,103553.53
2019-05-21T06:30:00.300Z,103812.33
2019-05-21T06:32:30.954Z,103920.73
2019-05-21T06:35:11.859Z,104285.77
2019-05-21T06:37:42.180Z,104759.44
2019-05-21T06:40:13.385Z,104807.45
2019-05-21T06:42:43.763Z,104801.72
2019-05-21T06:45:14.774Z,104978.12
2019-05-21T06:47:45.449Z,105396.89
2019-05-21T06:50:15.883Z,105296.52
2019-05-21T06:52:46.513Z,105259.66
2019-05-21T06:55:18.527Z,105288.43
2019-05-21T06:57:49.537Z,105542.41
2019-05-21T07:00:21.410Z,105862.62
2019-05-21T07:02:52.083Z,105976.56
2019-05-21T07:05:22.715Z,105599.17
2019-05-21T07:07:53.071Z,105278.98
2019-05-21T07:10:33.884Z,105583.77
2019-05-21T07:13:04.184Z,105938.23
2019-05-21T07:15:34.473Z,106183.14
2019-05-21T07:18:04.903Z,106087.22
2019-05-21T07:20:37.748Z,105772.13
2019-05-21T07:23:09.120Z,105732.41
2019-05-21T07:25:39.412Z,105899.45
2019-05-21T07:28:11.374Z,106460.46
2019-05-21T07:30:41.685Z,106910.48
2019-05-21T07:33:14.471Z,106957.14
2019-05-21T07:35:44.857Z,107047.27
2019-05-21T07:38:17.314Z,107197.98
2019-05-21T07:40:48.322Z,107251.97
2019-05-21T07:43:18.649Z,107509.77
2019-05-21T07:45:48.871Z,107509.77
2019-05-21T07:48:22.719Z,107095.59
2019-05-21T07:50:55.610Z,107095.59
2019-05-21T07:53:26.308Z,106604.27
2019-05-21T07:55:56.674Z,106913.33
2019-05-21T07:58:29.731Z,106848.12
2019-05-21T08:01:01.566Z,106536.86
2019-05-21T08:03:32.209Z,106292.61
2019-05-21T08:06:02.872Z,105841.75
2019-05-21T08:08:33.438Z,105671.13
2019-05-21T08:11:05.084Z,105510.23
2019-05-21T08:13:36.934Z,105457.32
2019-05-21T08:16:07.260Z,105787.85
2019-05-21T08:18:37.901Z,106145.69
2019-05-21T08:21:11.288Z,106413.94
2019-05-21T08:23:43.249Z,106751.27
2019-05-21T08:26:13.689Z,106596.44
2019-05-21T08:28:44.539Z,106690.23
2019-05-21T08:31:14.911Z,107202.77
2019-05-21T08:33:47.619Z,107333.73
2019-05-21T08:36:17.926Z,107452.45
2019-05-21T08:38:48.267Z,107347.31
2019-05-21T08:41:18.595Z,107874.20
2019-05-21T08:44:09.965Z,108067.05
2019-05-21T08:46:42.044Z,108111.95
2019-05-21T08:49:16.797Z,107985.53
2019-05-21T08:51:47.183Z,108513.64
2019-05-21T08:54:38.475Z,108411.45
2019-05-21T08:57:08.874Z,108628.44
2019-05-21T08:59:39.464Z,108945.17
2019-05-21T09:02:12.415Z,108823.69
2019-05-21T09:04:46.157Z,108902.20
2019-05-21T09:07:15.406Z,108897.50
2019-05-21T09:09:50.426Z,108617.19
2019-05-21T09:12:18.107Z,108598.28
2019-05-21T09:14:48.362Z,108567.23
2019-05-21T09:17:19.835Z,108831.39
2019-05-21T09:19:50.242Z,108520.17
2019-05-21T09:22:20.630Z,108627.56
2019-05-21T09:24:50.994Z,108275.32
2019-05-21T09:27:22.798Z,108503.87
2019-05-21T09:29:55.923Z,107821.52
2019-05-21T09:32:32.503Z,107357.02
2019-05-21T09:35:05.155Z,107246.69
2019-05-21T09:37:37.529Z,107017.45
2019-05-21T09:40:08.523Z,106520.48
2019-05-21T09:42:39.439Z,106292.03
2019-05-21T09:45:10.456Z,106535.69
2019-05-21T09:47:41.563Z,106754.19
2019-05-21T09:50:12.503Z,106068.23
2019-05-21T09:52:48.384Z,106011.81
2019-05-21T09:55:19.412Z,106763.69
2019-05-21T09:58:15.831Z,107162.05
2019-05-21T10:01:17.123Z,107104.41
2019-05-21T10:03:56.187Z,107225.79
2019-05-21T10:06:26.789Z,107419.75
2019-05-21T10:08:57.251Z,107522.05
2019-05-21T10:11:27.904Z,107342.97
2019-05-21T10:13:58.589Z,107254.98
2019-05-21T10:16:30.537Z,106907.59
2019-05-21T10:19:00.851Z,106974.77
2019-05-21T10:21:31.721Z,106567.87
2019-05-21T10:24:02.681Z,106682.81
2019-05-21T10:26:42.548Z,106682.81
2019-05-21T10:29:15.165Z,107155.68
2019-05-21T10:31:45.486Z,107845.64
2019-05-21T10:34:15.843Z,108231.47
2019-05-21T10:36:46.502Z,108369.14
2019-05-21T10:39:16.879Z,108606.60
2019-05-21T10:41:47.167Z,108330.64
2019-05-21T10:44:17.878Z,108486.58
2019-05-21T10:46:50.349Z,107987.29
2019-05-21T10:49:23.347Z,107187.30
2019-05-21T10:51:53.681Z,106597.37
2019-05-21T10:54:24.414Z,106328.06
2019-05-21T10:56:54.765Z,106103.97
2019-05-21T10:59:26.955Z,105909.77
2019-05-21T11:02:07.571Z,106369.70
2019-05-21T11:04:42.482Z,106712.36
2019-05-21T11:07:14.354Z,106352.07
2019-05-21T11:09:46.516Z,106081.37
2019-05-21T11:12:17.161Z,106994.23
2019-05-21T11:14:47.882Z,108089.11
2019-05-21T11:17:18.478Z,108708.60
2019-05-21T11:19:48.927Z,109170.27
2019-05-21T11:22:20.988Z,108585.49
2019-05-21T11:24:52.842Z,108450.72
2019-05-21T11:27:28.550Z,107918.86
2019-05-21T11:29:59.722Z,108455.12
2019-05-21T11:32:30.085Z,107613.80
2019-05-21T11:35:00.434Z,107118.41
2019-05-21T11:37:33.456Z,107619.37
2019-05-21T11:40:08.487Z,107756.56
2019-05-21T11:42:38.356Z,108021.09
2019-05-21T11:45:10.665Z,108040.52
2019-05-21T11:47:40.953Z,108621.91
2019-05-21T11:50:11.752Z,108416.23
2019-05-21T11:52:42.179Z,108395.71
2019-05-21T11:55:12.619Z,108126.34
2019-05-21T11:57:47.619Z,108279.67
2019-05-21T12:00:22.915Z,108228.62
2019-05-21T12:03:04.057Z,108085.52
2019-05-21T12:05:35.010Z,108010.00
2019-05-21T12:08:07.289Z,108240.19
2019-05-21T12:10:38.065Z,108505.84
2019-05-21T12:13:08.434Z,108410.39
2019-05-21T12:15:38.566Z,108527.73
2019-05-21T12:18:08.922Z,108400.72
2019-05-21T12:20:39.347Z,108618.23
2019-05-21T12:23:09.659Z,108481.78
2019-05-21T12:25:42.015Z,108219.72
2019-05-21T12:28:14.310Z,108016.02
2019-05-21T12:30:45.547Z,108173.73
2019-05-21T12:33:15.850Z,108680.31
2019-05-21T12:35:46.747Z,108179.17
2019-05-21T12:38:17.106Z,107315.22
2019-05-21T12:40:49.398Z,106290.38
2019-05-21T12:43:20.900Z,105875.19
2019-05-21T12:45:51.229Z,105875.19
2019-05-21T12:48:21.593Z,106114.46
2019-05-21T12:50:51.964Z,106290.34
2019-05-21T12:53:22.749Z,106671.81
2019-05-21T12:55:53.269Z,106671.22
2019-05-21T12:58:23.641Z,106769.63
2019-05-21T13:00:54.032Z,106143.06
2019-05-21T13:03:25.269Z,105978.98
2019-05-21T13:05:56.348Z,105534.99
2019-05-21T13:08:26.711Z,105563.58
2019-05-21T13:11:23.876Z,105436.10
2019-05-21T13:14:02.784Z,105156.00
2019-05-21T13:16:39.467Z,104677.77
2019-05-21T13:19:11.425Z,104395.25
2019-05-21T13:21:50.061Z,104376.41
2019-05-21T13:24:29.517Z,104177.44
2019-05-21T13:27:11.238Z,104447.26
2019-05-21T13:30:07.440Z,104868.74
2019-05-21T13:32:58.661Z,105908.69
2019-05-21T13:35:49.588Z,106496.76
2019-05-21T13:38:32.223Z,107307.33
2019-05-21T13:41:05.621Z,106612.53
2019-05-21T13:43:56.460Z,106056.07
2019-05-21T13:46:28.545Z,105576.55
2019-05-21T13:49:09.387Z,105246.50
2019-05-21T13:51:48.516Z,105167.83
2019-05-21T13:54:26.046Z,105816.64
2019-05-21T13:57:01.420Z,106273.93
2019-05-21T13:59:56.182Z,106380.30
2019-05-21T14:02:30.935Z,106911.72
2019-05-21T14:05:12.592Z,106911.72
2019-05-21T14:07:50.424Z,106655.84
2019-05-21T14:10:23.867Z,106655.84
2019-05-21T14:12:59.962Z,106303.13
2019-05-21T14:15:36.493Z,105684.38
2019-05-21T14:18:23.468Z,105728.62
2019-05-21T14:21:02.619Z,105931.58
2019-05-21T14:26:25.850Z,106131.47
2019-05-21T14:28:59.937Z,106126.86
2019-05-21T14:31:30.278Z,106248.14
2019-05-21T14:34:00.921Z,105727.63
2019-05-21T14:36:31.511Z,105790.98
2019-05-21T14:39:10.098Z,105569.22
2019-05-21T14:41:54.008Z,105755.69
2019-05-21T14:44:24.631Z,106176.23
2019-05-21T14:46:55.593Z,106187.49
2019-05-21T14:49:26.657Z,106066.70
2019-05-21T14:51:57.005Z,105760.18
2019-05-21T14:54:27.459Z,105537.19
2019-05-21T14:57:01.007Z,105570.41
2019-05-21T14:59:33.013Z,105641.71
2019-05-21T15:02:03.422Z,105451.62
2019-05-21T15:04:35.182Z,105371.73
2019-05-21T15:07:09.111Z,105359.64
2019-05-21T15:09:43.633Z,104977.98
2019-05-21T15:12:14.589Z,105058.91
2019-05-21T15:14:48.103Z,105149.05
2019-05-21T15:17:18.595Z,105073.64
2019-05-21T15:19:52.368Z,105013.24
2019-05-21T15:22:40.438Z,104275.95
2019-05-21T15:25:11.872Z,103912.16
2019-05-21T15:27:42.331Z,103609.09
2019-05-21T15:30:14.081Z,103434.42
2019-05-21T15:32:44.447Z,103386.80
2019-05-21T15:35:15.445Z,103440.00
2019-05-21T15:37:46.028Z,103342.39
2019-05-21T15:40:16.788Z,103207.97
2019-05-21T15:42:54.949Z,103308.06
2019-05-21T15:45:32.603Z,103560.67
2019-05-21T15:48:04.589Z,103770.50
2019-05-21T15:50:39.411Z,104065.20
2019-05-21T15:53:09.727Z,104081.30
2019-05-21T15:55:41.524Z,104073.86
2019-05-21T15:58:11.920Z,103953.02
2019-05-21T16:00:42.347Z,104040.41
2019-05-21T16:03:14.991Z,103997.45
2019-05-21T16:05:45.774Z,104010.08
2019-05-21T16:08:18.479Z,104061.23
2019-05-21T16:10:50.219Z,104143.62
2019-05-21T16:13:20.897Z,103947.70
2019-05-21T16:15:54.363Z,103949.93
2019-05-21T16:18:25.015Z,103877.28
2019-05-21T16:20:55.351Z,103686.83
2019-05-21T16:23:27.148Z,103619.70
2019-05-21T16:25:57.626Z,103556.47
2019-05-21T16:28:29.677Z,103484.09
2019-05-21T16:31:00.130Z,103446.78
2019-05-21T16:33:30.533Z,103325.61
2019-05-21T16:36:00.907Z,103259.34
2019-05-21T16:38:31.670Z,103239.50
2019-05-21T16:41:02.692Z,103051.88
2019-05-21T16:43:35.906Z,103059.91
2019-05-21T16:46:06.265Z,102985.38
2019-05-21T16:48:36.997Z,102989.81
2019-05-21T16:51:07.636Z,102952.50
2019-05-21T16:53:37.989Z,102978.97
2019-05-21T16:56:10.226Z,102836.06
2019-05-21T16:58:40.528Z,102790.86
2019-05-21T17:01:14.211Z,102785.44
2019-05-21T17:03:59.068Z,102719.67
2019-05-21T17:06:20.023Z,102585.33
2019-05-21T17:08:52.601Z,102487.63
2019-05-21T17:11:26.191Z,102470.80
2019-05-21T17:14:00.440Z,102524.23
2019-05-21T17:16:30.914Z,102526.95
2019-05-21T17:19:02.112Z,102454.97
2019-05-21T17:21:32.462Z,102380.67
2019-05-21T17:24:02.827Z,102416.37
2019-05-21T17:26:33.233Z,102332.21
2019-05-21T17:29:03.579Z,102306.90
2019-05-21T17:31:33.955Z,102295.99
2019-05-21T17:34:05.588Z,102214.81
2019-05-21T17:36:35.928Z,102242.02
2019-05-21T17:39:08.123Z,102283.11
2019-05-21T17:41:38.501Z,102219.58
2019-05-21T17:44:08.817Z,102202.53
2019-05-21T17:46:47.103Z,102165.52
2019-05-21T17:49:17.465Z,102113.89
2019-05-21T17:51:51.456Z,102121.36
2019-05-21T17:54:24.866Z,102158.03
2019-05-21T17:56:59.013Z,102104.70
2019-05-21T17:59:29.491Z,102064.61
2019-05-21T18:02:01.161Z,102053.45
2019-05-21T18:04:31.684Z,102055.79
2019-05-21T18:07:03.922Z,102051.38
2019-05-21T18:09:35.892Z,102026.63
2019-05-21T18:12:08.489Z,101972.13
2019-05-21T18:14:39.091Z,101950.94
2019-05-21T18:17:13.486Z,101939.06
2019-05-21T18:19:46.256Z,101891.08
2019-05-21T18:22:18.217Z,101887.53
2019-05-21T18:24:51.390Z,101812.75
2019-05-21T18:27:24.139Z,101777.13
2019-05-21T18:29:54.430Z,101744.09
2019-05-21T18:32:24.740Z,101695.92
2019-05-21T18:34:55.083Z,101686.98
2019-05-21T18:37:26.196Z,101674.63
2019-05-21T18:39:58.622Z,101608.59
2019-05-21T18:42:30.478Z,101575.73
2019-05-21T18:45:01.897Z,101533.59
2019-05-21T18:47:33.829Z,101512.81
2019-05-21T18:50:04.857Z,101473.70
2019-05-21T18:52:35.639Z,101461.65
2019-05-21T18:55:06.350Z,101453.92
2019-05-21T18:57:37.530Z,101465.91
2019-05-21T19:00:08.769Z,101419.01
2019-05-21T19:02:39.057Z,101338.33
2019-05-21T19:05:09.712Z,101277.33
2019-05-21T19:07:42.671Z,101291.00
2019-05-21T19:10:15.793Z,101204.98
2019-05-21T19:12:48.540Z,101184.73
2019-05-21T19:15:21.697Z,101156.67
2019-05-21T19:17:52.059Z,101080.53
2019-05-21T19:20:23.996Z,101047.59
2019-05-21T19:22:56.578Z,101027.97
2019-05-21T19:25:32.891Z,100978.03
2019-05-21T19:28:08.770Z,100918.62
2019-05-21T19:30:41.435Z,100873.09
2019-05-21T19:33:11.767Z,100825.90
2019-05-21T19:35:42.253Z,100806.30
2019-05-21T19:38:12.666Z,100825.40
2019-05-21T19:40:45.262Z,100784.05
2019-05-21T19:43:15.622Z,100726.27
2019-05-21T19:45:46.728Z,100758.62
2019-05-21T19:48:17.083Z,100730.50
2019-05-21T19:50:49.492Z,100700.82
2019-05-21T19:53:21.055Z,100637.97
2019-05-21T19:55:51.496Z,100651.09
2019-05-21T19:58:22.107Z,100653.78
2019-05-21T20:00:54.872Z,100642.34
2019-05-21T20:03:25.633Z,100587.61
2019-05-21T20:05:56.306Z,100547.55
2019-05-21T20:08:31.766Z,100529.55
2019-05-21T20:11:02.550Z,100496.05
2019-05-21T20:13:34.305Z,100522.64
2019-05-21T20:16:05.912Z,100500.77
2019-05-21T20:18:36.269Z,100495.20
2019-05-21T20:21:08.819Z,100445.89
2019-05-21T20:23:39.962Z,100382.66
2019-05-21T20:26:18.530Z,100327.32
2019-05-21T20:28:49.034Z,100293.56
2019-05-21T20:31:20.922Z,100276.24
2019-05-21T20:33:53.786Z,100281.80
2019-05-21T20:36:24.194Z,100279.42
2019-05-21T20:38:56.126Z,100272.38
2019-05-21T20:41:26.551Z,100306.13
2019-05-21T20:44:00.573Z,100324.78
2019-05-21T20:46:32.578Z,100372.50
2019-05-21T20:49:03.842Z,100446.53
2019-05-21T20:51:34.714Z,100506.44
2019-05-21T20:54:11.187Z,100563.64
2019-05-21T20:56:41.956Z,100584.17
2019-05-21T20:59:12.624Z,100555.89
2019-05-21T21:01:43.429Z,100576.77
2019-05-21T21:04:13.845Z,100627.27
2019-05-21T21:06:45.245Z,100604.36
2019-05-21T21:09:15.562Z,100634.33
2019-05-21T21:11:46.685Z,100611.42
2019-05-21T21:14:20.434Z,100601.83
2019-05-21T21:16:50.607Z,100638.70
2019-05-21T21:19:20.958Z,100643.58
2019-05-21T21:21:52.373Z,100633.48
2019-05-21T21:24:22.704Z,100619.48
2019-05-21T21:26:53.426Z,100618.77
2019-05-21T21:29:24.735Z,100631.91
2019-05-21T21:31:55.138Z,100623.16
2019-05-21T21:34:37.929Z,100590.34
2019-05-21T21:37:09.034Z,100582.44
2019-05-21T21:39:40.288Z,100555.98
2019-05-21T21:42:11.146Z,100518.43
2019-05-21T21:44:46.504Z,100493.53
2019-05-21T21:47:18.215Z,100497.21
2019-05-21T21:49:50.089Z,100523.30
2019-05-21T21:52:20.575Z,100496.22
2019-05-21T21:54:51.000Z,100487.48
2019-05-21T21:57:21.352Z,100472.32
2019-05-21T21:59:52.405Z,100452.30
2019-05-21T22:02:32.496Z,100455.83
2019-05-21T22:05:03.145Z,100395.80
2019-05-21T22:07:35.427Z,100389.53
2019-05-21T22:10:08.373Z,100357.61
2019-05-21T22:12:38.951Z,100372.06
2019-05-21T22:15:09.918Z,100352.89
2019-05-21T22:17:41.312Z,100339.79
2019-05-21T22:20:13.875Z,100356.42
2019-05-21T22:22:49.848Z,100356.42
2019-05-21T22:25:27.945Z,100327.33
2019-05-21T22:28:02.084Z,100316.52
2019-05-21T22:30:34.235Z,100300.36
2019-05-21T22:33:04.630Z,100303.88
2019-05-21T22:35:35.276Z,100297.33
2019-05-21T22:38:07.610Z,100292.27
2019-05-21T22:40:39.147Z,100349.81
2019-05-21T22:43:09.925Z,100324.45
2019-05-21T22:45:43.034Z,100326.28
2019-05-21T22:48:13.909Z,100311.08
2019-05-21T22:50:44.200Z,100274.45
2019-05-21T22:53:16.780Z,100256.64
2019-05-21T22:55:47.179Z,100237.14
2019-05-21T22:58:17.599Z,100233.13
2019-05-21T23:00:47.894Z,100230.09
2019-05-21T23:03:18.258Z,100220.98
2019-05-21T23:05:48.607Z,100216.97
2019-05-21T23:08:19.603Z,100228.06
2019-05-21T23:10:50.246Z,100221.48
2019-05-21T23:13:24.431Z,100240.32
2019-05-21T23:15:55.640Z,100239.83
2019-05-21T23:18:26.034Z,100259.62
2019-05-21T23:20:59.141Z,100242.30
2019-05-21T23:23:31.318Z,100270.04
2019-05-21T23:26:02.493Z,100267.86
2019-05-21T23:28:34.548Z,100249.70
2019-05-21T23:31:06.209Z,100262.10
2019-05-21T23:33:37.649Z,100285.47
2019-05-21T23:36:08.170Z,100288.00
2019-05-21T23:38:39.247Z,100282.45
2019-05-21T23:41:11.045Z,100264.63
2019-05-21T23:43:41.374Z,100254.21
2019-05-21T23:46:15.856Z,100256.40
2019-05-21T23:48:46.593Z,100236.02
2019-05-21T23:51:18.695Z,100215.53
2019-05-21T23:53:49.351Z,100204.13
2019-05-21T23:56:19.765Z,100208.48
2019-05-21T23:58:51.143Z,100217.22
